Terminal Aerodrome Forecast
Issued by NWS

Home | Current Version | Previous Version | Text Only | Print | Product List | Glossary On
Versions: 1 2 3 4 5 6 7 8 9 10 11 12 13 14 15 16 17
000
FTUS46 KSGX 042330
TAFONT
TAF
KONT 042330Z 0500/0606 25012KT P6SM SKC
     FM050500 VRB05KT P6SM SCT020
     FM050830 VRB03KT P6SM BKN017
     FM051600 VRB05KT P6SM BKN030
     FM052000 25010G18KT P6SM SKC
     FM060500 VRB05KT P6SM FEW015=

USA.gov is the U.S. government's official web portal to all federal, state and local government web resources and services.